Time;durP1;ratioP1;P1;durP2;ratioP2;P2;SDS_P1;SDS_P2;PMS_P1;PMS_P2;Temp;Humidity;BMP_temperature;BMP_pressure;BME280_temperature;BME280_humidity;BME280_pressure;Samples;Min_cycle;Max_cycle;Signal;HPM_P1;HPM_P2
2022/04/02 00:01:16;;;;;;;21.00;12.10;;;;;;;;;;5055296;28;20447;-77
2022/04/02 00:03:41;;;;;;;20.50;12.35;;;;;;;;;;5055216;28;20035;-76
2022/04/02 00:06:07;;;;;;;24.67;12.75;;;;;;;;;;5055154;28;20343;-77
2022/04/02 00:08:34;;;;;;;19.13;11.93;;;;;;;;;;5037795;28;20115;-77
2022/04/02 00:10:59;;;;;;;20.23;11.63;;;;;;;;;;5037506;28;20055;-77
2022/04/02 00:13:25;;;;;;;21.77;12.32;;;;;;;;;;5055352;28;20029;-77
2022/04/02 00:15:50;;;;;;;18.70;12.55;;;;;;;;;;5037895;28;20391;-77
2022/04/02 00:18:15;;;;;;;17.27;11.35;;;;;;;;;;5054991;28;20060;-77
2022/04/02 00:20:41;;;;;;;22.42;11.77;;;;;;;;;;5037171;28;20454;-77
2022/04/02 00:25:50;;;;;;;18.65;11.43;;;;;;;;;;5040044;28;20449;-77
2022/04/02 00:28:16;;;;;;;23.75;11.70;;;;;;;;;;5054988;28;20021;-77
2022/04/02 00:30:41;;;;;;;22.52;11.50;;;;;;;;;;5055030;28;20366;-77
2022/04/02 00:33:07;;;;;;;17.50;10.98;;;;;;;;;;5037000;28;20078;-77
2022/04/02 00:35:32;;;;;;;19.15;11.52;;;;;;;;;;5054348;28;20124;-77
2022/04/02 00:37:58;;;;;;;23.27;11.15;;;;;;;;;;5037011;28;20409;-77
2022/04/02 00:40:23;;;;;;;24.83;11.02;;;;;;;;;;5054517;28;20040;-77
2022/04/02 00:42:49;;;;;;;20.67;11.80;;;;;;;;;;5054344;28;20040;-77
2022/04/02 00:45:14;;;;;;;18.52;11.98;;;;;;;;;;5054391;28;20091;-78
2022/04/02 00:47:40;;;;;;;26.52;11.45;;;;;;;;;;5054270;28;20078;-77
2022/04/02 00:50:05;;;;;;;16.42;11.13;;;;;;;;;;5054316;28;20033;-77
2022/04/02 00:52:31;;;;;;;22.38;12.90;;;;;;;;;;5054968;28;20450;-76
2022/04/02 00:54:56;;;;;;;22.00;12.68;;;;;;;;;;5054372;28;20040;-77
2022/04/02 00:57:24;;;;;;;19.50;11.40;;;;;;;;;;5054304;28;20029;-77
2022/04/02 00:59:50;;;;;;;31.08;15.10;;;;;;;;;;5054247;28;20470;-77
2022/04/02 01:02:19;;;;;;;23.05;14.57;;;;;;;;;;5054530;28;20148;-77
2022/04/02 01:04:44;;;;;;;26.63;14.38;;;;;;;;;;5036816;28;20029;-78
2022/04/02 01:07:10;;;;;;;27.70;14.68;;;;;;;;;;5036655;28;20033;-77
2022/04/02 01:09:35;;;;;;;23.15;14.40;;;;;;;;;;5054317;28;20037;-77
2022/04/02 01:12:01;;;;;;;21.20;12.73;;;;;;;;;;5054125;28;20025;-77
2022/04/02 01:14:26;;;;;;;17.88;10.88;;;;;;;;;;5054164;28;20435;-77
2022/04/02 01:16:52;;;;;;;13.50;8.63;;;;;;;;;;5053882;28;20037;-77
2022/04/02 01:19:17;;;;;;;13.43;6.65;;;;;;;;;;5053738;28;20107;-77
2022/04/02 01:21:45;;;;;;;14.02;7.07;;;;;;;;;;5053927;28;20029;-77
2022/04/02 01:24:10;;;;;;;12.73;5.95;;;;;;;;;;5054127;28;20032;-77
2022/04/02 01:26:36;;;;;;;9.05;5.20;;;;;;;;;;5053915;28;20447;-77
2022/04/02 01:29:01;;;;;;;6.38;4.50;;;;;;;;;;5036054;28;20033;-77
2022/04/02 01:31:27;;;;;;;6.38;4.00;;;;;;;;;;5054121;28;20029;-76
2022/04/02 01:33:53;;;;;;;4.20;2.45;;;;;;;;;;5053634;28;20029;-77
2022/04/02 01:36:18;;;;;;;5.03;2.70;;;;;;;;;;5054126;28;20110;-77
2022/04/02 01:38:44;;;;;;;2.95;1.92;;;;;;;;;;5054151;28;20157;-77
2022/04/02 01:41:09;;;;;;;2.53;1.92;;;;;;;;;;5035931;28;20081;-77
2022/04/02 01:43:35;;;;;;;4.32;1.70;;;;;;;;;;5035929;28;20037;-77
2022/04/02 01:46:01;;;;;;;5.10;2.42;;;;;;;;;;5036812;28;20021;-77
2022/04/02 01:48:27;;;;;;;6.05;1.80;;;;;;;;;;5057500;28;20021;-77
2022/04/02 01:50:52;;;;;;;6.65;1.13;;;;;;;;;;5058140;28;20116;-76
2022/04/02 01:53:18;;;;;;;2.00;1.00;;;;;;;;;;5040001;28;20032;-77
2022/04/02 01:55:44;;;;;;;2.15;1.10;;;;;;;;;;5059016;28;20029;-77
2022/04/02 01:58:09;;;;;;;1.52;1.10;;;;;;;;;;5039920;28;20021;-77
2022/04/02 02:00:35;;;;;;;1.33;1.10;;;;;;;;;;5057674;28;20112;-77
2022/04/02 02:03:01;;;;;;;2.28;1.38;;;;;;;;;;5057303;28;20102;-76
2022/04/02 02:05:27;;;;;;;2.38;0.93;;;;;;;;;;5058159;28;20057;-77
2022/04/02 02:07:53;;;;;;;1.38;1.00;;;;;;;;;;5057497;28;20187;-76
2022/04/02 02:10:19;;;;;;;6.28;1.67;;;;;;;;;;5056212;28;20033;-77
2022/04/02 02:12:44;;;;;;;7.13;2.05;;;;;;;;;;5057415;28;20083;-77
2022/04/02 02:15:16;;;;;;;3.78;1.30;;;;;;;;;;5039569;28;20021;-78
2022/04/02 02:17:43;;;;;;;3.45;1.10;;;;;;;;;;5057110;28;20025;-77
2022/04/02 02:20:09;;;;;;;5.80;1.20;;;;;;;;;;5039570;28;20031;-77
2022/04/02 02:22:35;;;;;;;2.72;1.13;;;;;;;;;;5057400;28;20025;-77
2022/04/02 02:25:00;;;;;;;5.35;1.23;;;;;;;;;;5057634;28;20170;-77
2022/04/02 02:27:26;;;;;;;2.63;1.40;;;;;;;;;;5057180;28;20457;-77
2022/04/02 02:29:52;;;;;;;3.03;1.50;;;;;;;;;;5039398;28;20029;-77
2022/04/02 02:32:17;;;;;;;4.07;1.15;;;;;;;;;;5056923;28;20032;-77
2022/04/02 02:37:28;;;;;;;5.25;1.40;;;;;;;;;;5056980;28;20497;-77
2022/04/02 02:39:55;;;;;;;1.90;1.10;;;;;;;;;;5039586;28;20025;-77
2022/04/02 02:42:21;;;;;;;2.70;1.08;;;;;;;;;;5056659;28;20047;-77
2022/04/02 02:44:46;;;;;;;3.70;1.40;;;;;;;;;;5039180;28;20108;-77
2022/04/02 02:47:12;;;;;;;4.55;1.45;;;;;;;;;;5056528;28;20146;-77
2022/04/02 02:49:37;;;;;;;2.75;1.10;;;;;;;;;;5056790;28;20044;-77
2022/04/02 02:52:03;;;;;;;2.38;1.00;;;;;;;;;;5056870;28;20124;-77
2022/04/02 02:54:29;;;;;;;1.77;1.10;;;;;;;;;;5039155;28;20021;-77
2022/04/02 02:56:54;;;;;;;6.43;1.40;;;;;;;;;;5057833;28;20371;-77
2022/04/02 02:59:20;;;;;;;4.68;1.10;;;;;;;;;;5055678;28;20049;-77
2022/04/02 03:01:45;;;;;;;2.83;1.45;;;;;;;;;;5055095;28;20032;-76
2022/04/02 03:04:11;;;;;;;3.88;1.55;;;;;;;;;;5056459;28;20386;-77
2022/04/02 03:06:37;;;;;;;3.50;1.75;;;;;;;;;;5056405;28;20037;-77
2022/04/02 03:09:03;;;;;;;3.92;1.30;;;;;;;;;;5056368;28;20032;-77
2022/04/02 03:11:29;;;;;;;1.42;1.08;;;;;;;;;;5056349;28;20028;-77
2022/04/02 03:13:54;;;;;;;2.45;1.15;;;;;;;;;;5056475;28;20078;-76
2022/04/02 03:16:21;;;;;;;1.95;0.95;;;;;;;;;;5055954;28;20028;-77
2022/04/02 03:18:47;;;;;;;2.17;1.10;;;;;;;;;;5056327;28;20020;-77
2022/04/02 03:21:12;;;;;;;1.75;0.90;;;;;;;;;;5055238;28;20032;-77
2022/04/02 03:23:38;;;;;;;3.80;1.27;;;;;;;;;;5056095;28;20064;-76
2022/04/02 03:26:03;;;;;;;1.95;0.95;;;;;;;;;;5056022;28;20035;-77
2022/04/02 03:28:29;;;;;;;1.10;0.95;;;;;;;;;;5038327;28;20033;-78
2022/04/02 03:30:54;;;;;;;2.97;1.08;;;;;;;;;;5055784;28;20033;-77
2022/04/02 03:33:20;;;;;;;1.00;0.90;;;;;;;;;;5055942;28;20029;-77
2022/04/02 03:35:46;;;;;;;1.73;1.17;;;;;;;;;;5055874;28;20056;-77
2022/04/02 03:38:11;;;;;;;3.22;1.55;;;;;;;;;;5056295;28;20064;-76
2022/04/02 03:40:37;;;;;;;2.65;1.40;;;;;;;;;;5055976;28;20064;-77
2022/04/02 03:43:04;;;;;;;3.15;1.48;;;;;;;;;;5055561;28;20450;-77
2022/04/02 03:45:30;;;;;;;5.38;1.50;;;;;;;;;;5037939;28;20063;-76
2022/04/02 03:47:56;;;;;;;2.80;1.48;;;;;;;;;;5056080;28;20072;-77
2022/04/02 03:50:21;;;;;;;2.65;1.65;;;;;;;;;;5055409;28;20049;-77
2022/04/02 03:52:46;;;;;;;1.52;1.40;;;;;;;;;;5055511;28;20029;-77
2022/04/02 03:55:12;;;;;;;1.50;1.40;;;;;;;;;;5055511;28;20513;-77
2022/04/02 03:57:39;;;;;;;2.10;1.45;;;;;;;;;;5057099;28;20102;-77
2022/04/02 04:00:06;;;;;;;0.90;0.90;;;;;;;;;;5037402;28;20033;-77
2022/04/02 04:02:37;;;;;;;1.30;1.20;;;;;;;;;;5037528;28;20401;-77
2022/04/02 04:05:06;;;;;;;3.85;1.05;;;;;;;;;;5055172;28;20044;-77
2022/04/02 04:07:31;;;;;;;4.32;1.20;;;;;;;;;;5055100;28;20461;-77
2022/04/02 04:09:57;;;;;;;6.72;1.23;;;;;;;;;;5055164;28;20033;-77
2022/04/02 04:12:22;;;;;;;1.30;1.20;;;;;;;;;;5037366;28;20115;-77
2022/04/02 04:14:48;;;;;;;2.70;1.48;;;;;;;;;;5037100;28;20120;-77
2022/04/02 04:17:14;;;;;;;3.03;2.20;;;;;;;;;;5021146;28;20043;-77
2022/04/02 04:19:40;;;;;;;10.05;5.78;;;;;;;;;;5055320;28;20078;-76
2022/04/02 04:22:06;;;;;;;12.18;6.88;;;;;;;;;;5054979;28;20029;-77
2022/04/02 04:24:32;;;;;;;7.93;4.63;;;;;;;;;;5054947;28;20040;-77
2022/04/02 04:26:58;;;;;;;5.72;3.38;;;;;;;;;;5037471;28;20115;-77
2022/04/02 04:29:23;;;;;;;4.57;2.72;;;;;;;;;;5054653;28;20143;-77
2022/04/02 04:31:49;;;;;;;2.92;1.85;;;;;;;;;;5054804;28;20099;-77
2022/04/02 04:34:17;;;;;;;1.95;1.50;;;;;;;;;;5037081;28;20126;-76
2022/04/02 04:36:42;;;;;;;4.60;1.70;;;;;;;;;;5054795;28;20351;-77
2022/04/02 04:39:08;;;;;;;5.85;2.30;;;;;;;;;;5054829;28;20026;-77
2022/04/02 04:41:33;;;;;;;3.67;2.10;;;;;;;;;;5054672;28;20376;-77
2022/04/02 04:43:59;;;;;;;4.13;2.30;;;;;;;;;;5054383;28;20079;-77
2022/04/02 04:46:24;;;;;;;6.68;2.95;;;;;;;;;;5054627;28;20465;-77
2022/04/02 04:48:50;;;;;;;8.50;3.10;;;;;;;;;;5036841;28;20028;-77
2022/04/02 04:51:15;;;;;;;7.28;3.05;;;;;;;;;;5036791;28;20059;-77
2022/04/02 04:53:41;;;;;;;7.47;3.60;;;;;;;;;;5054689;28;20484;-77
2022/04/02 04:56:07;;;;;;;7.97;3.17;;;;;;;;;;5054646;28;20115;-76
2022/04/02 04:58:33;;;;;;;8.98;2.83;;;;;;;;;;5054283;28;20027;-77
2022/04/02 05:00:59;;;;;;;4.82;2.83;;;;;;;;;;5054461;28;20072;-77
2022/04/02 05:03:24;;;;;;;5.65;2.33;;;;;;;;;;5054407;28;20073;-77
2022/04/02 05:05:51;;;;;;;3.47;2.33;;;;;;;;;;5054229;28;20056;-77
2022/04/02 05:08:17;;;;;;;8.73;2.95;;;;;;;;;;5054185;28;20067;-77
2022/04/02 05:10:42;;;;;;;6.30;2.72;;;;;;;;;;5054013;28;20025;-77
2022/04/02 05:13:08;;;;;;;4.53;2.60;;;;;;;;;;5053881;28;20021;-77
2022/04/02 05:15:36;;;;;;;3.70;1.92;;;;;;;;;;5036776;28;20024;-77
2022/04/02 05:18:02;;;;;;;7.03;2.08;;;;;;;;;;5054059;28;20044;-76
2022/04/02 05:20:28;;;;;;;3.35;1.90;;;;;;;;;;5036933;28;20430;-78
2022/04/02 05:22:54;;;;;;;6.40;2.28;;;;;;;;;;5036448;28;20032;-77
2022/04/02 05:25:19;;;;;;;5.95;2.10;;;;;;;;;;5053996;28;20032;-77
2022/04/02 05:27:45;;;;;;;5.63;2.10;;;;;;;;;;5053763;28;20029;-77
2022/04/02 05:30:11;;;;;;;6.47;1.90;;;;;;;;;;5053969;28;20056;-77
2022/04/02 05:32:37;;;;;;;3.20;2.00;;;;;;;;;;5053983;28;20028;-77
2022/04/02 05:35:04;;;;;;;5.57;2.00;;;;;;;;;;5036402;28;20029;-76
2022/04/02 05:37:29;;;;;;;4.88;2.00;;;;;;;;;;5054228;28;20365;-77
2022/04/02 05:39:55;;;;;;;7.72;2.00;;;;;;;;;;5053868;28;20036;-77
2022/04/02 05:42:21;;;;;;;13.55;2.72;;;;;;;;;;5053380;28;20067;-78
2022/04/02 05:44:47;;;;;;;4.18;1.90;;;;;;;;;;5036187;28;20025;-77
2022/04/02 05:47:12;;;;;;;3.28;1.35;;;;;;;;;;5053693;28;20025;-77
2022/04/02 05:49:37;;;;;;;3.55;1.60;;;;;;;;;;5035858;28;20037;-77
2022/04/02 05:52:04;;;;;;;4.28;1.55;;;;;;;;;;5053977;28;20035;-77
2022/04/02 05:54:30;;;;;;;7.57;2.17;;;;;;;;;;5053783;28;20358;-77
2022/04/02 05:56:56;;;;;;;4.35;1.25;;;;;;;;;;5035790;28;20056;-78
2022/04/02 05:59:21;;;;;;;3.05;1.40;;;;;;;;;;5036277;28;20060;-77
2022/04/02 06:01:47;;;;;;;4.43;1.60;;;;;;;;;;5038099;28;20421;-75
2022/04/02 06:04:13;;;;;;;6.85;1.40;;;;;;;;;;5035853;28;20021;-75
2022/04/02 06:06:38;;;;;;;6.28;1.70;;;;;;;;;;5035969;28;20025;-77
2022/04/02 06:09:04;;;;;;;6.95;1.83;;;;;;;;;;5053492;28;20033;-78
2022/04/02 06:11:29;;;;;;;3.72;1.40;;;;;;;;;;5054150;28;20054;-78
2022/04/02 06:13:55;;;;;;;5.93;1.40;;;;;;;;;;5019307;28;20489;-78
2022/04/02 06:16:21;;;;;;;6.93;1.50;;;;;;;;;;5035891;28;20032;-78
2022/04/02 06:18:46;;;;;;;2.92;1.30;;;;;;;;;;5019460;28;20021;-75
2022/04/02 06:21:12;;;;;;;4.53;1.38;;;;;;;;;;5019561;28;20027;-76
2022/04/02 06:23:37;;;;;;;3.35;1.30;;;;;;;;;;5019762;28;20124;-76
2022/04/02 06:26:03;;;;;;;7.60;1.80;;;;;;;;;;5035620;28;20163;-76
2022/04/02 06:28:28;;;;;;;5.07;1.48;;;;;;;;;;5035658;28;20436;-76
2022/04/02 06:30:54;;;;;;;3.65;1.20;;;;;;;;;;5019335;28;20033;-77
2022/04/02 06:33:19;;;;;;;7.90;1.50;;;;;;;;;;5038395;28;20033;-76
2022/04/02 06:35:45;;;;;;;2.55;1.10;;;;;;;;;;5039315;28;20422;-76
2022/04/02 06:38:10;;;;;;;2.72;1.00;;;;;;;;;;5022581;28;20036;-75
2022/04/02 06:40:36;;;;;;;5.57;1.50;;;;;;;;;;5039066;28;20045;-75
2022/04/02 06:43:01;;;;;;;1.98;1.30;;;;;;;;;;5061538;28;20079;-76
2022/04/02 06:45:27;;;;;;;3.17;1.00;;;;;;;;;;5039433;28;20025;-76
2022/04/02 06:47:52;;;;;;;5.15;1.10;;;;;;;;;;5039020;28;20481;-76
2022/04/02 06:50:18;;;;;;;6.93;1.50;;;;;;;;;;5038929;28;20025;-76
2022/04/02 06:52:43;;;;;;;4.65;1.10;;;;;;;;;;5057005;28;20025;-76
2022/04/02 06:55:09;;;;;;;3.30;0.90;;;;;;;;;;5058708;28;20454;-76
2022/04/02 06:57:47;;;;;;;4.38;1.20;;;;;;;;;;5040289;28;20432;-76
2022/04/02 07:00:14;;;;;;;5.03;1.10;;;;;;;;;;5023657;28;20029;-76
2022/04/02 07:02:40;;;;;;;2.45;1.02;;;;;;;;;;5058009;28;20025;-76
2022/04/02 07:05:06;;;;;;;6.25;1.13;;;;;;;;;;5058916;28;20128;-76
2022/04/02 07:07:31;;;;;;;5.30;1.50;;;;;;;;;;5056328;28;20028;-77
2022/04/02 07:09:56;;;;;;;1.30;0.80;;;;;;;;;;5056420;28;20030;-75
2022/04/02 07:12:22;;;;;;;2.30;1.02;;;;;;;;;;5038684;28;20436;-76
2022/04/02 07:14:47;;;;;;;5.57;1.20;;;;;;;;;;5038550;28;20103;-76
2022/04/02 07:17:14;;;;;;;1.75;1.10;;;;;;;;;;5056682;28;20037;-75
2022/04/02 07:19:40;;;;;;;6.00;1.30;;;;;;;;;;5056232;28;20021;-76
2022/04/02 07:22:09;;;;;;;3.75;1.20;;;;;;;;;;5038330;28;20033;-75
2022/04/02 07:24:37;;;;;;;3.70;1.00;;;;;;;;;;5038736;28;20025;-75
2022/04/02 07:27:02;;;;;;;2.80;1.00;;;;;;;;;;5038821;28;20021;-76
2022/04/02 07:29:28;;;;;;;5.75;1.20;;;;;;;;;;5038125;28;20036;-75
2022/04/02 07:31:54;;;;;;;4.85;1.02;;;;;;;;;;5038333;28;20024;-76
2022/04/02 07:34:19;;;;;;;1.65;1.00;;;;;;;;;;5038423;28;20020;-75
2022/04/02 07:37:04;;;;;;;2.78;1.02;;;;;;;;;;5055606;28;20020;-74
2022/04/02 07:39:50;;;;;;;4.22;1.10;;;;;;;;;;5055871;28;20370;-75
2022/04/02 07:42:26;;;;;;;5.80;0.98;;;;;;;;;;5040612;28;20041;-75
2022/04/02 07:45:05;;;;;;;3.50;1.10;;;;;;;;;;5054252;28;20041;-76
2022/04/02 07:47:37;;;;;;;8.48;1.05;;;;;;;;;;5056262;28;20056;-75
2022/04/02 07:50:08;;;;;;;4.68;1.00;;;;;;;;;;5038451;28;20028;-76
2022/04/02 07:52:36;;;;;;;2.85;1.08;;;;;;;;;;5037550;28;20087;-75
2022/04/02 07:55:03;;;;;;;5.28;1.02;;;;;;;;;;5056002;28;20397;-75
2022/04/02 07:57:42;;;;;;;3.92;1.23;;;;;;;;;;5037971;28;20036;-75
2022/04/02 08:00:10;;;;;;;4.05;1.65;;;;;;;;;;5038752;28;20021;-75
2022/04/02 08:02:37;;;;;;;4.40;1.58;;;;;;;;;;5055384;28;20142;-76
2022/04/02 08:05:03;;;;;;;5.80;1.63;;;;;;;;;;5037496;28;20103;-75
2022/04/02 08:07:29;;;;;;;8.07;2.38;;;;;;;;;;5038041;28;20518;-76
2022/04/02 08:09:55;;;;;;;4.13;1.80;;;;;;;;;;5037563;28;20036;-75
2022/04/02 08:12:20;;;;;;;7.80;2.20;;;;;;;;;;5037451;28;20374;-76
2022/04/02 08:14:47;;;;;;;2.92;1.25;;;;;;;;;;5055194;28;20025;-75
2022/04/02 08:17:12;;;;;;;4.15;1.20;;;;;;;;;;5021117;28;20072;-75
2022/04/02 08:19:38;;;;;;;4.70;1.20;;;;;;;;;;5037043;28;20122;-75
2022/04/02 08:22:03;;;;;;;4.03;1.15;;;;;;;;;;5004265;28;20056;-75
2022/04/02 08:24:29;;;;;;;3.45;1.40;;;;;;;;;;5055279;28;20021;-75
2022/04/02 08:27:08;;;;;;;4.10;2.05;;;;;;;;;;5037276;28;20443;-75
2022/04/02 08:30:13;;;;;;;4.78;1.80;;;;;;;;;;5037062;28;20028;-75
2022/04/02 08:32:57;;;;;;;9.60;2.28;;;;;;;;;;4974031;28;20035;-76
2022/04/02 08:35:30;;;;;;;3.78;1.70;;;;;;;;;;4973855;28;20396;-75
2022/04/02 08:38:24;;;;;;;4.60;1.13;;;;;;;;;;5015921;28;20041;-76
2022/04/02 08:41:27;;;;;;;3.55;1.35;;;;;;;;;;4994530;28;20049;-75
2022/04/02 08:44:33;;;;;;;6.47;1.23;;;;;;;;;;5054578;28;20052;-74
2022/04/02 08:47:12;;;;;;;1.70;1.20;;;;;;;;;;5023869;28;20045;-77
2022/04/02 08:50:05;;;;;;;4.70;1.60;;;;;;;;;;5054254;28;20025;-75
2022/04/02 08:52:52;;;;;;;4.38;1.35;;;;;;;;;;5054451;28;20025;-75
2022/04/02 08:55:36;;;;;;;1.70;1.30;;;;;;;;;;5035835;28;20381;-78
2022/04/02 08:58:16;;;;;;;2.80;1.48;;;;;;;;;;5054491;28;20029;-77
2022/04/02 09:00:46;;;;;;;7.78;1.35;;;;;;;;;;5036737;28;20098;-77
2022/04/02 09:03:40;;;;;;;10.23;1.30;;;;;;;;;;5036189;28;20058;-77
2022/04/02 09:06:21;;;;;;;6.95;1.10;;;;;;;;;;5039419;28;20029;-76
2022/04/02 09:09:06;;;;;;;4.15;1.50;;;;;;;;;;5054342;28;20029;-77
2022/04/02 09:11:50;;;;;;;4.90;1.50;;;;;;;;;;5036663;28;20021;-77
2022/04/02 09:14:24;;;;;;;6.28;1.48;;;;;;;;;;5054160;28;20369;-77
2022/04/02 09:16:58;;;;;;;3.47;1.58;;;;;;;;;;5054379;28;20369;-77
2022/04/02 09:19:27;;;;;;;3.05;1.42;;;;;;;;;;5053916;28;20087;-77
2022/04/02 09:22:15;;;;;;;3.92;1.45;;;;;;;;;;5054252;28;20036;-78
2022/04/02 09:24:56;;;;;;;2.90;1.40;;;;;;;;;;5036868;28;20438;-77
2022/04/02 09:28:00;;;;;;;4.95;1.20;;;;;;;;;;5037160;28;20029;-77
2022/04/02 09:30:47;;;;;;;2.42;1.40;;;;;;;;;;5016725;28;20037;-77
2022/04/02 09:33:50;;;;;;;5.68;1.35;;;;;;;;;;5053685;28;20025;-77
2022/04/02 09:36:35;;;;;;;2.30;1.00;;;;;;;;;;5053911;28;20043;-75
2022/04/02 09:39:24;;;;;;;2.60;1.50;;;;;;;;;;5052785;28;20427;-74
2022/04/02 09:41:50;;;;;;;3.50;1.40;;;;;;;;;;5025202;28;20041;-75
2022/04/02 09:44:34;;;;;;;1.40;1.00;;;;;;;;;;5053955;28;20036;-77
2022/04/02 09:47:26;;;;;;;1.88;1.20;;;;;;;;;;5053678;28;20036;-77
2022/04/02 09:50:10;;;;;;;2.10;1.40;;;;;;;;;;5052611;28;20036;-75
2022/04/02 09:52:46;;;;;;;3.22;1.10;;;;;;;;;;5053710;28;20032;-75
2022/04/02 09:55:13;;;;;;;3.08;1.63;;;;;;;;;;5053986;28;20025;-75
2022/04/02 09:58:00;;;;;;;2.10;1.30;;;;;;;;;;5053768;28;20108;-76
2022/04/02 10:00:35;;;;;;;3.25;1.20;;;;;;;;;;5053927;28;20049;-75
2022/04/02 10:03:24;;;;;;;0.80;0.80;;;;;;;;;;5019714;28;20036;-74
2022/04/02 10:06:11;;;;;;;3.65;1.30;;;;;;;;;;5035928;28;20432;-75
2022/04/02 10:08:47;;;;;;;8.65;1.20;;;;;;;;;;5061966;28;20380;-75
2022/04/02 10:11:12;;;;;;;5.78;0.80;;;;;;;;;;5039937;28;20029;-75
2022/04/02 10:13:38;;;;;;;6.25;0.82;;;;;;;;;;5039998;28;20028;-76
2022/04/02 10:16:04;;;;;;;4.05;1.00;;;;;;;;;;5039345;28;20033;-76
2022/04/02 10:18:29;;;;;;;2.78;1.17;;;;;;;;;;5039627;28;20491;-75
2022/04/02 10:20:54;;;;;;;1.90;1.00;;;;;;;;;;5039565;28;20052;-75
2022/04/02 10:23:24;;;;;;;1.40;1.23;;;;;;;;;;5039446;28;20037;-76
2022/04/02 10:26:15;;;;;;;10.47;1.20;;;;;;;;;;5056123;28;20154;-75
2022/04/02 10:28:43;;;;;;;1.85;1.00;;;;;;;;;;5043558;28;20283;-75
2022/04/02 10:31:08;;;;;;;2.22;0.88;;;;;;;;;;5057280;28;20094;-75
2022/04/02 10:33:36;;;;;;;2.85;1.15;;;;;;;;;;5022788;28;20040;-75
2022/04/02 10:36:03;;;;;;;2.85;1.10;;;;;;;;;;5039569;28;20036;-78
2022/04/02 10:38:39;;;;;;;1.83;0.90;;;;;;;;;;5057001;28;20021;-78
2022/04/02 10:41:07;;;;;;;2.38;1.20;;;;;;;;;;5056812;28;20112;-77
2022/04/02 10:44:12;;;;;;;5.45;1.67;;;;;;;;;;5056950;28;20041;-77
2022/04/02 10:46:39;;;;;;;4.63;2.00;;;;;;;;;;4995133;28;20026;-76
2022/04/02 10:49:05;;;;;;;4.10;1.60;;;;;;;;;;5018932;28;20090;-75
2022/04/02 10:51:31;;;;;;;6.25;1.90;;;;;;;;;;5039068;28;20028;-76
2022/04/02 10:54:02;;;;;;;2.70;1.83;;;;;;;;;;5039043;28;20033;-76
2022/04/02 10:56:33;;;;;;;3.00;1.35;;;;;;;;;;5039090;28;20024;-76
2022/04/02 10:58:58;;;;;;;3.53;1.90;;;;;;;;;;5039058;28;20036;-76
2022/04/02 11:01:24;;;;;;;6.97;1.90;;;;;;;;;;5056208;28;20029;-75
2022/04/02 11:03:55;;;;;;;2.50;1.52;;;;;;;;;;5038784;28;20083;-75
2022/04/02 11:06:49;;;;;;;7.68;2.25;;;;;;;;;;5056562;28;20024;-76
2022/04/02 11:09:27;;;;;;;6.22;1.60;;;;;;;;;;5057926;28;20029;-75
2022/04/02 11:11:53;;;;;;;3.55;1.40;;;;;;;;;;5056494;28;20025;-76
2022/04/02 11:14:21;;;;;;;4.13;1.80;;;;;;;;;;5038586;28;20044;-76
2022/04/02 11:16:47;;;;;;;1.73;1.10;;;;;;;;;;5056535;28;20037;-75
2022/04/02 11:22:09;;;;;;;4.47;0.93;;;;;;;;;;5056131;28;20028;-76
2022/04/02 11:24:58;;;;;;;3.33;0.93;;;;;;;;;;5056171;28;20029;-76
2022/04/02 11:27:24;;;;;;;2.88;1.00;;;;;;;;;;5010818;28;20044;-76
2022/04/02 11:29:50;;;;;;;7.82;1.20;;;;;;;;;;5041037;28;20068;-77
2022/04/02 11:32:22;;;;;;;3.53;0.93;;;;;;;;;;5039276;28;20054;-76
2022/04/02 11:34:48;;;;;;;4.93;0.90;;;;;;;;;;5039056;28;20112;-77
2022/04/02 11:37:13;;;;;;;4.07;0.90;;;;;;;;;;5056213;28;20549;-78
2022/04/02 11:39:48;;;;;;;3.03;0.82;;;;;;;;;;5038214;28;20025;-77
2022/04/02 11:42:14;;;;;;;2.15;1.00;;;;;;;;;;5038379;28;20072;-76
2022/04/02 11:44:42;;;;;;;3.38;0.80;;;;;;;;;;5037856;28;20029;-76
2022/04/02 11:47:08;;;;;;;5.72;1.00;;;;;;;;;;5038929;28;20386;-76
2022/04/02 11:49:39;;;;;;;7.10;0.90;;;;;;;;;;5037923;28;20021;-76
2022/04/02 11:52:13;;;;;;;4.20;1.15;;;;;;;;;;5038300;28;20106;-76
2022/04/02 11:54:48;;;;;;;5.30;0.90;;;;;;;;;;5055610;28;20025;-77
2022/04/02 11:57:14;;;;;;;3.60;1.13;;;;;;;;;;5038812;28;20115;-75
2022/04/02 11:59:50;;;;;;;7.10;1.48;;;;;;;;;;5037734;28;20167;-76
2022/04/02 12:02:35;;;;;;;1.55;1.00;;;;;;;;;;5055645;28;20032;-75
2022/04/02 12:05:01;;;;;;;3.00;0.85;;;;;;;;;;5055397;28;20021;-76
2022/04/02 12:07:39;;;;;;;4.68;1.10;;;;;;;;;;5037711;28;20025;-77
2022/04/02 12:10:05;;;;;;;8.07;1.02;;;;;;;;;;5037819;28;20025;-76
2022/04/02 12:12:31;;;;;;;1.83;0.80;;;;;;;;;;5038993;28;20021;-76
2022/04/02 12:14:58;;;;;;;5.10;1.60;;;;;;;;;;5037611;28;20048;-76
2022/04/02 12:17:23;;;;;;;3.60;1.08;;;;;;;;;;5037699;28;20021;-75
2022/04/02 12:19:52;;;;;;;1.20;0.80;;;;;;;;;;5020679;28;20035;-76
2022/04/02 12:22:31;;;;;;;3.03;1.05;;;;;;;;;;5055343;28;20021;-76
2022/04/02 12:25:08;;;;;;;2.67;0.90;;;;;;;;;;5055033;28;20021;-74
2022/04/02 12:27:37;;;;;;;2.83;1.50;;;;;;;;;;5054721;28;20440;-77
2022/04/02 12:30:09;;;;;;;8.23;2.72;;;;;;;;;;5037058;28;20370;-76
2022/04/02 12:32:42;;;;;;;8.52;3.00;;;;;;;;;;5053977;28;20048;-76
2022/04/02 12:35:11;;;;;;;7.43;1.85;;;;;;;;;;5037069;28;20438;-76
2022/04/02 12:37:49;;;;;;;7.60;2.20;;;;;;;;;;5054821;28;20025;-77
2022/04/02 12:40:25;;;;;;;3.45;1.95;;;;;;;;;;5037123;28;20727;-76
2022/04/02 12:43:00;;;;;;;7.07;1.40;;;;;;;;;;5054642;28;20516;-75
2022/04/02 12:45:36;;;;;;;2.30;1.20;;;;;;;;;;5037820;28;20032;-76
2022/04/02 12:48:10;;;;;;;6.43;1.10;;;;;;;;;;5038366;28;20033;-76
2022/04/02 12:50:36;;;;;;;3.67;1.20;;;;;;;;;;5054883;28;20029;-76
2022/04/02 12:53:02;;;;;;;4.60;1.23;;;;;;;;;;5054569;28;20028;-76
2022/04/02 12:55:29;;;;;;;2.60;1.20;;;;;;;;;;5036626;28;20079;-77
2022/04/02 12:57:59;;;;;;;2.40;0.90;;;;;;;;;;5054405;28;20032;-76
2022/04/02 13:00:36;;;;;;;2.00;1.20;;;;;;;;;;5054512;28;20442;-76
2022/04/02 13:03:02;;;;;;;3.45;1.25;;;;;;;;;;5036610;28;20120;-75
2022/04/02 13:05:44;;;;;;;3.60;1.30;;;;;;;;;;5037213;28;20032;-77
2022/04/02 13:08:28;;;;;;;3.17;1.00;;;;;;;;;;5037824;28;20051;-76
2022/04/02 13:11:00;;;;;;;2.25;1.20;;;;;;;;;;5036419;28;20070;-76
2022/04/02 13:13:43;;;;;;;5.00;1.17;;;;;;;;;;5036497;28;20029;-77
2022/04/02 13:16:14;;;;;;;4.18;1.20;;;;;;;;;;5036905;28;20021;-76
2022/04/02 13:21:32;;;;;;;3.53;1.65;;;;;;;;;;5039017;28;20032;-76
2022/04/02 13:24:23;;;;;;;2.47;1.10;;;;;;;;;;5054295;28;20440;-76
2022/04/02 13:27:09;;;;;;;4.30;1.17;;;;;;;;;;5036736;28;20057;-77
2022/04/02 13:29:37;;;;;;;5.57;1.00;;;;;;;;;;5019773;28;20119;-77
2022/04/02 13:32:49;;;;;;;2.25;1.13;;;;;;;;;;5059400;28;20464;-77
2022/04/02 13:35:50;;;;;;;8.60;1.77;;;;;;;;;;5048302;28;20041;-76
2022/04/02 13:38:49;;;;;;;6.53;2.10;;;;;;;;;;5054090;28;20029;-77
2022/04/02 13:41:14;;;;;;;3.92;1.40;;;;;;;;;;5053787;28;20074;-76
2022/04/02 13:43:52;;;;;;;6.72;2.45;;;;;;;;;;5023320;28;20434;-77
2022/04/02 13:46:24;;;;;;;2.65;1.63;;;;;;;;;;5041593;28;20032;-76
2022/04/02 13:48:57;;;;;;;5.15;2.10;;;;;;;;;;5041039;28;20025;-76
2022/04/02 13:51:36;;;;;;;6.10;2.25;;;;;;;;;;5058066;28;20094;-76
2022/04/02 13:54:04;;;;;;;4.82;1.95;;;;;;;;;;5056605;28;20025;-77
2022/04/02 13:56:31;;;;;;;3.67;1.90;;;;;;;;;;5040223;28;20119;-77
2022/04/02 13:58:58;;;;;;;8.98;2.30;;;;;;;;;;5040146;28;20441;-77
2022/04/02 14:01:23;;;;;;;3.20;1.73;;;;;;;;;;5040075;28;20036;-76
2022/04/02 14:03:57;;;;;;;3.28;1.50;;;;;;;;;;5040270;28;20037;-77
2022/04/02 14:06:24;;;;;;;7.18;2.20;;;;;;;;;;5039852;28;20125;-76
2022/04/02 14:08:50;;;;;;;1.85;1.20;;;;;;;;;;5039859;28;20041;-77
2022/04/02 14:11:17;;;;;;;8.55;1.77;;;;;;;;;;5040110;28;20033;-76
2022/04/02 14:14:13;;;;;;;4.15;1.42;;;;;;;;;;5058271;28;20033;-76
2022/04/02 14:16:39;;;;;;;5.32;1.50;;;;;;;;;;5040294;28;20035;-76
2022/04/02 14:19:09;;;;;;;3.92;1.33;;;;;;;;;;5039719;28;20434;-75
2022/04/02 14:21:35;;;;;;;5.60;1.90;;;;;;;;;;5056380;28;20082;-76
2022/04/02 14:24:25;;;;;;;3.10;1.50;;;;;;;;;;5039166;28;20446;-76
2022/04/02 14:27:11;;;;;;;4.78;2.28;;;;;;;;;;5056640;28;20075;-76
2022/04/02 14:30:04;;;;;;;7.05;2.85;;;;;;;;;;5057509;28;20033;-77
2022/04/02 14:33:07;;;;;;;5.55;2.83;;;;;;;;;;5060952;28;20389;-76
2022/04/02 14:35:50;;;;;;;6.28;2.20;;;;;;;;;;5057966;28;20078;-77
2022/04/02 14:38:48;;;;;;;5.93;1.75;;;;;;;;;;5057105;28;20041;-77
2022/04/02 14:41:32;;;;;;;2.47;1.40;;;;;;;;;;5023137;28;20032;-77
2022/04/02 14:44:42;;;;;;;7.22;1.70;;;;;;;;;;5056925;28;20039;-77
2022/04/02 14:47:34;;;;;;;9.47;3.27;;;;;;;;;;5052947;28;20087;-77
2022/04/02 14:50:27;;;;;;;7.95;2.95;;;;;;;;;;5056802;28;20025;-78
2022/04/02 14:52:57;;;;;;;6.75;2.40;;;;;;;;;;5056644;28;20033;-77
2022/04/02 14:55:41;;;;;;;8.07;2.80;;;;;;;;;;5055751;28;20044;-78
2022/04/02 14:58:34;;;;;;;7.53;2.17;;;;;;;;;;5056717;28;20025;-77
2022/04/02 15:01:28;;;;;;;4.75;1.98;;;;;;;;;;5056692;28;20036;-77
2022/04/02 15:04:12;;;;;;;7.80;2.70;;;;;;;;;;5055809;28;20131;-77
2022/04/02 15:07:05;;;;;;;7.80;1.92;;;;;;;;;;5055375;28;20533;-77
2022/04/02 15:10:03;;;;;;;4.43;1.63;;;;;;;;;;5056506;28;20025;-78
2022/04/02 15:12:29;;;;;;;4.70;1.20;;;;;;;;;;5040887;28;20387;-78
2022/04/02 15:15:00;;;;;;;2.22;1.13;;;;;;;;;;5039941;28;20370;-77